Time;durP1;ratioP1;P1;durP2;ratioP2;P2;SDS_P1;SDS_P2;PMS_P1;PMS_P2;Temp;Humidity;BMP_temperature;BMP_pressure;BME280_temperature;BME280_humidity;BME280_pressure;Samples;Min_cycle;Max_cycle;Signal;HPM_P1;HPM_P2
2023/01/25 00:01:09;;;;;;;14.40;8.50;;;;;;;-1.21;100.00;98475.64;109053;1264;22525;-76
2023/01/25 00:03:40;;;;;;;15.20;10.40;;;;;;;-1.21;100.00;98474.23;109015;1270;22521;-77
2023/01/25 00:06:11;;;;;;;17.00;10.30;;;;;;;-1.20;100.00;98474.02;108945;1271;22566;-77
2023/01/25 00:08:42;;;;;;;19.60;12.00;;;;;;;-1.20;100.00;98477.46;109069;1271;25401;-77
2023/01/25 00:11:15;;;;;;;16.60;10.80;;;;;;;-1.18;100.00;98470.23;108958;1263;22535;-77
2023/01/25 00:13:47;;;;;;;17.20;9.70;;;;;;;-1.20;100.00;98463.60;109044;1270;22551;-77
2023/01/25 00:16:22;;;;;;;16.40;8.30;;;;;;;-1.25;100.00;98457.67;108921;1264;22508;-77
2023/01/25 00:18:53;;;;;;;19.20;11.00;;;;;;;-1.34;100.00;98454.64;109040;1260;22630;-77
2023/01/25 00:21:26;;;;;;;21.40;12.00;;;;;;;-1.35;100.00;98448.40;109099;1267;22519;-77
2023/01/25 00:23:57;;;;;;;24.50;13.00;;;;;;;-1.33;100.00;98447.98;109103;1271;22520;-77
2023/01/25 00:26:31;;;;;;;21.30;13.10;;;;;;;-1.31;100.00;98448.05;109103;1264;25392;-77
2023/01/25 00:29:03;;;;;;;22.40;13.10;;;;;;;-1.28;100.00;98449.38;109037;1271;22532;-77
2023/01/25 00:31:50;;;;;;;27.60;15.80;;;;;;;-1.27;100.00;98448.86;109039;1271;24315;-77
2023/01/25 00:34:45;;;;;;;23.60;13.50;;;;;;;-1.26;100.00;98445.46;109113;1271;22463;-77
2023/01/25 00:37:24;;;;;;;29.40;16.00;;;;;;;-1.24;100.00;98444.57;108976;1267;22528;-78
2023/01/25 00:39:55;;;;;;;21.50;11.80;;;;;;;-1.21;100.00;98443.02;109084;1271;26865;-77
2023/01/25 00:42:26;;;;;;;27.20;14.70;;;;;;;-1.17;100.00;98442.48;109102;1264;22544;-77
2023/01/25 00:44:57;;;;;;;24.10;14.60;;;;;;;-1.13;100.00;98440.55;109088;1271;25328;-77
2023/01/25 00:47:30;;;;;;;27.10;15.30;;;;;;;-1.12;100.00;98443.02;109072;1271;22563;-77
2023/01/25 00:50:01;;;;;;;25.90;15.60;;;;;;;-1.12;100.00;98445.45;109002;1264;22614;-77
2023/01/25 00:52:32;;;;;;;30.70;15.00;;;;;;;-1.14;100.00;98446.86;109031;1271;22714;-77
2023/01/25 00:55:03;;;;;;;26.10;15.50;;;;;;;-1.16;100.00;98446.91;109091;1271;23225;-77
2023/01/25 00:57:33;;;;;;;27.60;15.40;;;;;;;-1.18;100.00;98442.81;109107;1271;22560;-77
2023/01/25 01:00:06;;;;;;;24.80;15.60;;;;;;;-1.18;100.00;98442.40;109022;1269;24208;-77
2023/01/25 01:02:37;;;;;;;25.90;16.20;;;;;;;-1.17;100.00;98444.73;109219;1270;22518;-77
2023/01/25 01:05:09;;;;;;;26.30;15.00;;;;;;;-1.16;100.00;98445.65;109085;1271;22521;-77
2023/01/25 01:07:40;;;;;;;28.00;15.50;;;;;;;-1.16;100.00;98444.87;109113;1270;22585;-77
2023/01/25 01:10:12;;;;;;;25.30;14.70;;;;;;;-1.17;100.00;98442.36;109102;1264;22535;-78
2023/01/25 01:12:43;;;;;;;24.00;14.50;;;;;;;-1.19;100.00;98434.04;109028;1270;22518;-78
2023/01/25 01:15:14;;;;;;;23.00;14.20;;;;;;;-1.21;100.00;98431.95;109100;1271;22531;-78
2023/01/25 01:17:45;;;;;;;23.80;13.30;;;;;;;-1.23;100.00;98428.05;108968;1270;25412;-77
2023/01/25 01:20:16;;;;;;;22.30;12.90;;;;;;;-1.27;100.00;98423.25;109092;1264;24240;-77
2023/01/25 01:22:47;;;;;;;20.40;12.60;;;;;;;-1.30;100.00;98418.48;109121;1270;24452;-77
2023/01/25 01:25:18;;;;;;;24.00;13.80;;;;;;;-1.30;100.00;98416.77;109015;1270;22525;-77
2023/01/25 01:27:49;;;;;;;24.10;12.20;;;;;;;-1.29;100.00;98409.54;109091;1271;22529;-78
2023/01/25 01:30:22;;;;;;;20.60;12.60;;;;;;;-1.28;100.00;98407.83;109094;1270;22539;-78
2023/01/25 01:32:54;;;;;;;20.50;12.00;;;;;;;-1.27;100.00;98404.30;109072;1270;27537;-77
2023/01/25 01:35:25;;;;;;;21.40;13.80;;;;;;;-1.28;100.00;98397.11;108909;1267;22530;-77
2023/01/25 01:37:56;;;;;;;23.90;13.50;;;;;;;-1.29;100.00;98393.02;108911;1271;22528;-77
2023/01/25 01:40:26;;;;;;;22.00;13.00;;;;;;;-1.28;100.00;98390.55;108934;1271;22525;-77
2023/01/25 01:43:05;;;;;;;26.30;13.80;;;;;;;-1.27;100.00;98385.86;109045;1269;22530;-77
2023/01/25 01:45:56;;;;;;;25.30;13.80;;;;;;;-1.26;100.00;98381.48;109080;1270;22517;-77
2023/01/25 01:48:35;;;;;;;19.40;11.60;;;;;;;-1.24;100.00;98373.30;109115;1270;22549;-77
2023/01/25 01:51:20;;;;;;;19.80;12.00;;;;;;;-1.25;100.00;98371.98;109093;1267;22541;-77
2023/01/25 01:53:56;;;;;;;20.70;12.40;;;;;;;-1.26;100.00;98368.96;109084;1256;23343;-77
2023/01/25 01:56:33;;;;;;;20.90;11.80;;;;;;;-1.24;100.00;98370.88;108920;1270;22546;-77
2023/01/25 01:59:05;;;;;;;20.10;11.50;;;;;;;-1.26;100.00;98362.21;108971;1264;22531;-77
2023/01/25 02:01:39;;;;;;;18.90;11.00;;;;;;;-1.27;100.00;98350.90;109032;1270;22535;-77
2023/01/25 02:04:13;;;;;;;20.10;11.10;;;;;;;-1.32;100.00;98344.17;108994;1270;23066;-77
2023/01/25 02:06:50;;;;;;;16.20;9.80;;;;;;;-1.41;100.00;98340.55;108936;1271;26416;-77
2023/01/25 02:09:26;;;;;;;14.70;9.90;;;;;;;-1.49;100.00;98338.63;109100;1268;25654;-77
2023/01/25 02:11:59;;;;;;;14.90;9.50;;;;;;;-1.51;100.00;98341.61;108966;1270;22554;-77
2023/01/25 02:14:30;;;;;;;16.30;9.70;;;;;;;-1.51;100.00;98342.00;109078;1264;22564;-77
2023/01/25 02:17:03;;;;;;;15.80;10.10;;;;;;;-1.53;100.00;98346.52;109069;1270;22552;-77
2023/01/25 02:19:48;;;;;;;14.80;8.90;;;;;;;-1.54;100.00;98344.33;109117;1270;22573;-77
2023/01/25 02:22:23;;;;;;;17.50;10.40;;;;;;;-1.53;100.00;98341.48;109015;1264;22531;-78
2023/01/25 02:25:04;;;;;;;14.80;8.70;;;;;;;-1.52;100.00;98342.39;108965;1270;22521;-77
2023/01/25 02:27:38;;;;;;;17.80;10.20;;;;;;;-1.52;100.00;98340.27;109113;1270;22530;-78
2023/01/25 02:30:11;;;;;;;12.60;8.00;;;;;;;-1.53;100.00;98342.00;109073;1271;22546;-77
2023/01/25 02:32:42;;;;;;;15.90;8.90;;;;;;;-1.52;100.00;98346.02;109108;1270;25295;-78
2023/01/25 02:35:20;;;;;;;14.10;9.00;;;;;;;-1.49;100.00;98343.66;108907;1271;22568;-77
2023/01/25 02:37:54;;;;;;;14.50;7.80;;;;;;;-1.46;100.00;98349.21;108939;1271;22546;-77
2023/01/25 02:40:25;;;;;;;14.70;9.30;;;;;;;-1.41;100.00;98348.19;109096;1264;23075;-77
2023/01/25 02:42:56;;;;;;;15.90;9.20;;;;;;;-1.36;100.00;98344.36;109098;1270;22570;-77
2023/01/25 02:45:30;;;;;;;14.40;9.20;;;;;;;-1.33;100.00;98345.58;108939;1263;26727;-77
2023/01/25 02:48:00;;;;;;;13.40;8.10;;;;;;;-1.29;100.00;98341.67;109007;1271;22579;-77
2023/01/25 02:50:31;;;;;;;15.20;9.00;;;;;;;-1.26;100.00;98338.41;109108;1270;22541;-77
2023/01/25 02:53:02;;;;;;;13.40;7.40;;;;;;;-1.24;100.00;98338.05;109046;1270;23113;-77
2023/01/25 02:55:33;;;;;;;12.60;7.60;;;;;;;-1.23;100.00;98338.27;109092;1270;22513;-77
2023/01/25 02:58:04;;;;;;;11.90;6.70;;;;;;;-1.21;100.00;98339.13;109017;1270;22547;-77
2023/01/25 03:00:35;;;;;;;13.50;7.40;;;;;;;-1.20;100.00;98342.17;108924;1263;24237;-77
2023/01/25 03:03:06;;;;;;;11.20;7.20;;;;;;;-1.19;100.00;98337.23;108956;1271;24259;-78
2023/01/25 03:05:37;;;;;;;8.80;5.50;;;;;;;-1.20;100.00;98331.25;108989;1264;24595;-77
2023/01/25 03:08:08;;;;;;;10.50;6.10;;;;;;;-1.24;100.00;98325.23;108955;1270;22531;-78
2023/01/25 03:10:39;;;;;;;10.50;6.20;;;;;;;-1.26;100.00;98323.41;109037;1271;22534;-77
2023/01/25 03:13:12;;;;;;;11.70;6.70;;;;;;;-1.30;100.00;98323.42;109000;1263;22537;-78
2023/01/25 03:15:42;;;;;;;10.60;6.30;;;;;;;-1.35;100.00;98324.21;109025;1271;22540;-78
2023/01/25 03:18:13;;;;;;;9.70;6.30;;;;;;;-1.36;100.00;98326.33;108987;1263;22637;-78
2023/01/25 03:20:44;;;;;;;10.40;6.50;;;;;;;-1.37;100.00;98322.65;109081;1270;25350;-78
2023/01/25 03:23:15;;;;;;;6.70;4.00;;;;;;;-1.40;100.00;98320.16;109115;1267;22714;-78
2023/01/25 03:25:46;;;;;;;7.60;4.40;;;;;;;-1.44;100.00;98322.69;109121;1270;25270;-79
2023/01/25 03:28:17;;;;;;;9.10;5.40;;;;;;;-1.44;100.00;98328.05;109068;1271;22725;-79
2023/01/25 03:30:52;;;;;;;8.10;4.80;;;;;;;-1.42;100.00;98321.09;109002;1271;26012;-78
2023/01/25 03:33:23;;;;;;;9.80;6.40;;;;;;;-1.39;100.00;98320.98;109089;1271;23301;-77
2023/01/25 03:35:55;;;;;;;11.60;7.20;;;;;;;-1.35;100.00;98318.45;109103;1271;24490;-77
2023/01/25 03:38:26;;;;;;;12.00;6.90;;;;;;;-1.32;100.00;98313.64;109083;1264;22571;-77
2023/01/25 03:40:58;;;;;;;12.80;7.20;;;;;;;-1.32;100.00;98310.13;109006;1269;22553;-77
2023/01/25 03:43:29;;;;;;;10.20;7.10;;;;;;;-1.33;100.00;98312.80;108999;1264;22520;-78
2023/01/25 03:46:02;;;;;;;14.20;7.60;;;;;;;-1.32;100.00;98317.12;109057;1264;23035;-78
2023/01/25 03:48:33;;;;;;;11.00;6.90;;;;;;;-1.32;100.00;98316.89;109130;1266;22542;-78
2023/01/25 03:51:04;;;;;;;10.50;6.80;;;;;;;-1.30;100.00;98319.13;109088;1267;22541;-78
2023/01/25 03:53:35;;;;;;;11.30;7.90;;;;;;;-1.29;100.00;98323.73;109107;1270;22557;-77
2023/01/25 03:56:09;;;;;;;11.00;7.50;;;;;;;-1.29;100.00;98319.16;108938;1270;22643;-77
2023/01/25 03:58:40;;;;;;;13.00;8.40;;;;;;;-1.28;100.00;98322.70;109103;1263;25439;-77
2023/01/25 04:01:11;;;;;;;12.70;8.40;;;;;;;-1.27;100.00;98320.81;109061;1270;22536;-78
2023/01/25 04:03:42;;;;;;;11.80;7.20;;;;;;;-1.25;100.00;98318.45;109091;1270;24240;-78
2023/01/25 04:06:15;;;;;;;12.10;6.10;;;;;;;-1.27;100.00;98312.87;109063;1271;28583;-78
2023/01/25 04:08:46;;;;;;;10.10;5.40;;;;;;;-1.28;100.00;98312.33;108959;1271;22525;-78
2023/01/25 04:11:17;;;;;;;11.90;6.50;;;;;;;-1.34;100.00;98310.13;108959;1267;25430;-78
2023/01/25 04:13:48;;;;;;;10.10;7.10;;;;;;;-1.42;100.00;98310.63;109075;1270;22532;-78
2023/01/25 04:16:19;;;;;;;14.00;7.10;;;;;;;-1.45;100.00;98309.10;109003;1270;24228;-78
2023/01/25 04:18:50;;;;;;;10.30;6.00;;;;;;;-1.48;100.00;98306.24;109102;1267;25549;-78
2023/01/25 04:21:23;;;;;;;9.90;6.10;;;;;;;-1.50;100.00;98309.08;108943;1270;22513;-78
2023/01/25 04:23:54;;;;;;;8.40;5.70;;;;;;;-1.53;100.00;98304.35;109113;1270;26464;-78
2023/01/25 04:26:25;;;;;;;10.00;5.50;;;;;;;-1.55;100.00;98305.23;109042;1263;22524;-78
2023/01/25 04:28:56;;;;;;;7.00;4.00;;;;;;;-1.56;100.00;98297.50;109088;1270;25384;-78
2023/01/25 04:31:27;;;;;;;6.50;3.90;;;;;;;-1.56;100.00;98298.05;108987;1270;25474;-78
2023/01/25 04:33:58;;;;;;;6.50;4.10;;;;;;;-1.57;100.00;98298.37;109028;1270;24153;-78
2023/01/25 04:36:29;;;;;;;7.70;4.80;;;;;;;-1.59;100.00;98291.16;109034;1270;22642;-78
2023/01/25 04:39:00;;;;;;;8.10;4.80;;;;;;;-1.60;100.00;98286.94;108980;1270;22573;-78
2023/01/25 04:41:31;;;;;;;7.30;4.60;;;;;;;-1.61;100.00;98282.70;109024;1270;22548;-78
2023/01/25 04:44:02;;;;;;;6.90;4.30;;;;;;;-1.61;100.00;98285.44;109085;1270;23448;-78
2023/01/25 04:46:35;;;;;;;7.60;4.20;;;;;;;-1.60;100.00;98283.94;108991;1271;22556;-78
2023/01/25 04:49:06;;;;;;;9.10;5.40;;;;;;;-1.60;100.00;98279.42;108820;1269;126425;-78
2023/01/25 04:51:40;;;;;;;7.10;5.20;;;;;;;-1.60;100.00;98277.15;108897;1264;26402;-78
2023/01/25 04:54:11;;;;;;;5.60;3.60;;;;;;;-1.59;100.00;98279.33;108933;1250;24228;-78
2023/01/25 04:56:43;;;;;;;7.50;4.40;;;;;;;-1.60;100.00;98271.30;108909;1264;22525;-77
2023/01/25 04:59:14;;;;;;;6.00;3.80;;;;;;;-1.60;100.00;98270.13;108899;1264;22659;-77
2023/01/25 05:01:47;;;;;;;7.40;4.70;;;;;;;-1.61;100.00;98266.69;108953;1264;22521;-78
2023/01/25 05:04:18;;;;;;;6.50;4.10;;;;;;;-1.60;100.00;98270.30;108913;1264;22500;-78
2023/01/25 05:06:50;;;;;;;6.10;3.50;;;;;;;-1.60;100.00;98267.11;108968;1264;25240;-78
2023/01/25 05:09:21;;;;;;;6.00;3.60;;;;;;;-1.59;100.00;98267.05;108955;1264;22530;-78
2023/01/25 05:11:52;;;;;;;6.20;4.00;;;;;;;-1.57;100.00;98272.41;108968;1263;24229;-79
2023/01/25 05:14:23;;;;;;;5.50;3.90;;;;;;;-1.57;100.00;98269.54;108928;1264;22567;-78
2023/01/25 05:16:54;;;;;;;6.20;3.80;;;;;;;-1.55;100.00;98273.71;108927;1269;22535;-79
2023/01/25 05:19:25;;;;;;;6.50;3.60;;;;;;;-1.54;100.00;98272.08;108938;1264;22520;-78
2023/01/25 05:21:59;;;;;;;6.10;4.00;;;;;;;-1.54;100.00;98269.61;108925;1264;22544;-78
2023/01/25 05:24:32;;;;;;;5.60;4.00;;;;;;;-1.53;100.00;98270.55;108928;1264;23813;-78
2023/01/25 05:27:04;;;;;;;5.30;3.50;;;;;;;-1.52;100.00;98266.48;108917;1268;22534;-78
2023/01/25 05:29:36;;;;;;;6.40;3.50;;;;;;;-1.52;100.00;98261.21;108992;1263;22540;-78
2023/01/25 05:32:10;;;;;;;4.10;3.30;;;;;;;-1.50;100.00;98258.45;108934;1268;22659;-78
2023/01/25 05:34:43;;;;;;;6.00;3.40;;;;;;;-1.49;100.00;98260.63;108877;1269;22568;-78
2023/01/25 05:37:19;;;;;;;6.00;3.70;;;;;;;-1.48;100.00;98260.05;108918;1264;24293;-78
2023/01/25 05:39:52;;;;;;;5.20;3.20;;;;;;;-1.48;100.00;98254.58;108969;1264;22533;-78
2023/01/25 05:42:23;;;;;;;5.20;3.40;;;;;;;-1.46;100.00;98253.31;108977;1264;22551;-78
2023/01/25 05:44:54;;;;;;;5.30;3.40;;;;;;;-1.41;100.00;98257.38;108921;1264;22556;-78
2023/01/25 05:47:26;;;;;;;6.30;3.80;;;;;;;-1.37;100.00;98257.75;108931;1266;22566;-78
2023/01/25 05:49:58;;;;;;;5.80;3.90;;;;;;;-1.32;100.00;98257.62;108896;1267;22524;-78
2023/01/25 05:52:29;;;;;;;5.30;3.50;;;;;;;-1.29;100.00;98258.61;108910;1267;22553;-77
2023/01/25 05:55:00;;;;;;;5.70;3.60;;;;;;;-1.26;100.00;98255.71;108941;1265;22519;-78
2023/01/25 05:57:32;;;;;;;5.60;3.60;;;;;;;-1.24;100.00;98255.64;108914;1263;22583;-78
2023/01/25 06:00:04;;;;;;;4.00;3.00;;;;;;;-1.22;100.00;98250.66;108892;1265;22540;-78
2023/01/25 06:02:35;;;;;;;5.90;3.60;;;;;;;-1.24;100.00;98249.59;108888;1264;22670;-78
2023/01/25 06:05:12;;;;;;;5.00;2.90;;;;;;;-1.24;100.00;98253.63;108893;1266;22543;-78
2023/01/25 06:07:43;;;;;;;4.80;3.50;;;;;;;-1.25;100.00;98248.71;108907;1263;25242;-78
2023/01/25 06:10:16;;;;;;;4.60;3.50;;;;;;;-1.26;100.00;98250.38;108962;1269;23802;-78
2023/01/25 06:12:51;;;;;;;6.60;4.10;;;;;;;-1.27;100.00;98255.85;108918;1264;22550;-78
2023/01/25 06:15:24;;;;;;;5.70;3.90;;;;;;;-1.27;100.00;98251.64;108891;1264;22531;-78
2023/01/25 06:17:57;;;;;;;4.80;3.40;;;;;;;-1.23;100.00;98249.30;108910;1268;22544;-78
2023/01/25 06:20:28;;;;;;;7.60;4.00;;;;;;;-1.18;100.00;98252.83;109080;1269;22526;-78
2023/01/25 06:22:59;;;;;;;5.70;3.90;;;;;;;-1.14;100.00;98250.19;109075;1271;23267;-78
2023/01/25 06:25:30;;;;;;;4.00;3.00;;;;;;;-1.11;100.00;98252.06;108915;1269;22520;-78
2023/01/25 06:28:01;;;;;;;4.20;3.00;;;;;;;-1.08;100.00;98256.58;108997;1266;22517;-78
2023/01/25 06:30:35;;;;;;;5.60;3.30;;;;;;;-1.05;100.00;98251.91;108990;1267;25406;-78
2023/01/25 06:33:06;;;;;;;5.20;3.20;;;;;;;-1.03;100.00;98248.27;109014;1270;22528;-78
2023/01/25 06:35:39;;;;;;;5.30;3.60;;;;;;;-1.02;100.00;98249.49;109020;1269;25050;-78
2023/01/25 06:38:09;;;;;;;4.70;3.30;;;;;;;-1.02;100.00;98242.95;108996;1266;22538;-78
2023/01/25 06:40:41;;;;;;;5.50;3.50;;;;;;;-1.01;100.00;98239.92;109096;1247;23336;-78
2023/01/25 06:43:12;;;;;;;4.90;3.20;;;;;;;-1.00;100.00;98241.10;109068;1270;22526;-78
2023/01/25 06:45:43;;;;;;;4.70;3.20;;;;;;;-0.96;100.00;98238.48;109050;1264;22534;-78
2023/01/25 06:48:14;;;;;;;4.80;3.10;;;;;;;-0.94;100.00;98238.08;109003;1270;22531;-78
2023/01/25 06:50:45;;;;;;;4.90;3.40;;;;;;;-0.93;100.00;98233.95;109041;1263;22528;-78
2023/01/25 06:53:21;;;;;;;4.50;3.10;;;;;;;-0.91;100.00;98228.70;109065;1267;22534;-78
2023/01/25 06:55:58;;;;;;;4.30;3.10;;;;;;;-0.89;100.00;98223.48;109014;1271;22527;-78
2023/01/25 06:58:30;;;;;;;4.60;2.80;;;;;;;-0.88;100.00;98221.02;109306;1271;25399;-78
2023/01/25 07:01:04;;;;;;;4.80;3.10;;;;;;;-0.88;100.00;98215.02;109330;1272;25265;-78
2023/01/25 07:03:35;;;;;;;5.80;3.30;;;;;;;-0.84;100.00;98216.20;109258;1266;22577;-78
2023/01/25 07:06:08;;;;;;;4.30;3.00;;;;;;;-0.81;100.00;98215.80;109066;1264;23345;-79
2023/01/25 07:08:39;;;;;;;5.80;2.90;;;;;;;-0.78;100.00;98217.02;109097;1270;25409;-78
2023/01/25 07:11:13;;;;;;;6.40;3.70;;;;;;;-0.74;100.00;98220.13;109071;1270;22520;-79
2023/01/25 07:13:45;;;;;;;7.60;4.00;;;;;;;-0.71;100.00;98220.83;109427;1270;22530;-79
2023/01/25 07:16:18;;;;;;;6.30;3.90;;;;;;;-0.69;100.00;98219.91;109242;1272;22523;-78
2023/01/25 07:18:50;;;;;;;6.30;4.50;;;;;;;-0.66;100.00;98218.85;109254;1266;22609;-79
2023/01/25 07:21:24;;;;;;;6.90;4.20;;;;;;;-0.62;100.00;98217.95;109278;1270;22520;-78
2023/01/25 07:23:59;;;;;;;5.70;3.80;;;;;;;-0.60;100.00;98214.59;109449;1270;22548;-78
2023/01/25 07:26:31;;;;;;;4.70;3.40;;;;;;;-0.57;100.00;98215.71;109418;1260;22530;-78
2023/01/25 07:29:02;;;;;;;4.70;3.00;;;;;;;-0.54;100.00;98217.64;109319;1271;22525;-79
2023/01/25 07:31:33;;;;;;;5.10;3.00;;;;;;;-0.51;100.00;98215.84;109358;1263;22560;-78
2023/01/25 07:34:08;;;;;;;4.50;2.80;;;;;;;-0.45;100.00;98213.98;109388;1270;22528;-78
2023/01/25 07:36:42;;;;;;;3.60;2.60;;;;;;;-0.39;100.00;98214.17;109281;1266;23308;-78
2023/01/25 07:39:13;;;;;;;3.90;3.00;;;;;;;-0.33;100.00;98210.23;109405;1263;22585;-78
2023/01/25 07:41:44;;;;;;;3.30;2.30;;;;;;;-0.27;100.00;98214.31;108958;1264;22986;-78
2023/01/25 07:44:15;;;;;;;4.10;2.80;;;;;;;-0.22;100.00;98209.37;109024;1270;22572;-79
2023/01/25 07:46:47;;;;;;;5.20;3.10;;;;;;;-0.16;100.00;98208.84;109054;1270;22520;-78
2023/01/25 07:49:18;;;;;;;4.00;2.90;;;;;;;-0.11;100.00;98205.15;109083;1263;22640;-78
2023/01/25 07:51:50;;;;;;;5.60;3.00;;;;;;;-0.05;100.00;98201.61;109028;1266;22521;-78
2023/01/25 07:54:21;;;;;;;4.30;2.50;;;;;;;0.03;100.00;98201.44;109098;1270;25497;-77
2023/01/25 07:56:52;;;;;;;4.20;3.00;;;;;;;0.04;100.00;98198.45;109029;1270;23100;-78
2023/01/25 07:59:24;;;;;;;27.80;11.10;;;;;;;0.04;100.00;98199.20;108970;1264;25274;-78
2023/01/25 08:01:55;;;;;;;28.90;11.60;;;;;;;0.01;100.00;98191.66;109311;1270;22559;-79
2023/01/25 08:04:26;;;;;;;26.40;10.60;;;;;;;0.05;100.00;98188.08;109380;1270;22927;-78
2023/01/25 08:06:58;;;;;;;18.20;8.00;;;;;;;0.07;100.00;98188.36;109383;1270;22540;-77
2023/01/25 08:09:28;;;;;;;11.10;6.10;;;;;;;0.11;100.00;98182.03;109370;1263;22562;-77
2023/01/25 08:11:59;;;;;;;8.70;4.80;;;;;;;0.13;100.00;98175.36;109322;1263;22565;-78
2023/01/25 08:14:32;;;;;;;14.50;8.30;;;;;;;0.15;100.00;98176.54;109314;1270;23065;-78
2023/01/25 08:17:03;;;;;;;14.50;9.60;;;;;;;0.19;100.00;98171.89;109344;1270;24281;-78
2023/01/25 08:19:34;;;;;;;10.70;6.70;;;;;;;0.16;100.00;98167.18;109382;1264;22521;-78
2023/01/25 08:22:06;;;;;;;7.80;4.60;;;;;;;0.10;100.00;98171.34;109346;1270;22511;-77
2023/01/25 08:24:37;;;;;;;7.10;4.60;;;;;;;0.17;100.00;98170.36;109027;1270;25264;-78
2023/01/25 08:27:08;;;;;;;7.00;4.50;;;;;;;0.27;100.00;98168.83;108967;1270;22536;-78
2023/01/25 08:29:39;;;;;;;6.70;4.00;;;;;;;0.33;100.00;98165.95;108944;1267;22663;-77
2023/01/25 08:32:10;;;;;;;5.30;3.30;;;;;;;0.39;100.00;98162.46;108800;1270;22514;-79
2023/01/25 08:34:41;;;;;;;4.10;2.90;;;;;;;0.46;100.00;98163.21;109452;1270;22565;-79
2023/01/25 08:37:15;;;;;;;5.20;3.20;;;;;;;0.54;100.00;98163.88;109348;1271;22575;-79
2023/01/25 08:39:46;;;;;;;4.70;2.80;;;;;;;0.57;100.00;98161.77;109438;1270;22570;-78
2023/01/25 08:42:16;;;;;;;5.80;3.50;;;;;;;0.64;100.00;98166.45;108799;1264;24238;-78
2023/01/25 08:44:47;;;;;;;6.10;4.00;;;;;;;0.69;100.00;98168.93;109305;1270;22563;-78
2023/01/25 08:47:19;;;;;;;8.10;5.10;;;;;;;0.61;100.00;98169.14;109305;1271;22561;-79
2023/01/25 08:49:51;;;;;;;8.40;5.40;;;;;;;0.53;100.00;98167.92;109377;1270;22534;-79
2023/01/25 08:52:22;;;;;;;10.80;6.30;;;;;;;0.52;100.00;98164.95;109386;1266;23683;-79
2023/01/25 08:54:53;;;;;;;10.80;6.20;;;;;;;0.49;100.00;98161.44;109370;1263;24323;-79
2023/01/25 08:57:23;;;;;;;11.40;6.80;;;;;;;0.49;100.00;98153.61;109372;1270;25230;-79
2023/01/25 08:59:54;;;;;;;8.70;5.10;;;;;;;0.50;100.00;98149.17;109328;1267;25287;-79
2023/01/25 09:02:25;;;;;;;9.00;6.00;;;;;;;0.51;100.00;98151.71;109384;1267;22534;-79
2023/01/25 09:04:56;;;;;;;8.60;5.80;;;;;;;0.42;100.00;98152.02;109306;1266;26583;-79
2023/01/25 09:07:27;;;;;;;10.50;6.70;;;;;;;0.38;100.00;98147.22;109338;1263;22521;-79
2023/01/25 09:09:58;;;;;;;11.10;6.80;;;;;;;0.46;100.00;98147.26;109410;1263;22510;-79
2023/01/25 09:12:30;;;;;;;13.40;8.00;;;;;;;0.52;100.00;98150.33;109354;1264;22537;-79
2023/01/25 09:15:01;;;;;;;13.70;8.90;;;;;;;0.55;100.00;98153.79;109374;1263;22521;-79
2023/01/25 09:17:32;;;;;;;13.50;9.20;;;;;;;0.50;100.00;98150.14;109405;1270;22543;-79
2023/01/25 09:20:03;;;;;;;13.50;9.50;;;;;;;0.42;100.00;98143.05;109368;1263;22576;-79
2023/01/25 09:22:34;;;;;;;15.00;10.40;;;;;;;0.33;100.00;98144.89;109402;1267;22523;-79
2023/01/25 09:25:05;;;;;;;14.30;8.80;;;;;;;0.36;100.00;98147.82;109325;1260;22588;-79
2023/01/25 09:27:37;;;;;;;15.00;9.10;;;;;;;0.42;100.00;98143.80;109264;1272;25239;-79
2023/01/25 09:30:11;;;;;;;13.20;8.80;;;;;;;0.50;100.00;98136.29;109325;1271;22524;-78
2023/01/25 09:32:42;;;;;;;10.60;7.30;;;;;;;0.61;100.00;98138.71;109362;1270;22563;-78
2023/01/25 09:35:13;;;;;;;12.70;8.30;;;;;;;0.62;100.00;98142.30;109345;1264;22536;-78
2023/01/25 09:37:44;;;;;;;12.90;8.10;;;;;;;0.51;100.00;98141.20;109418;1267;24022;-78
2023/01/25 09:40:21;;;;;;;14.90;8.30;;;;;;;0.42;100.00;98135.31;109363;1271;22631;-77
2023/01/25 09:43:03;;;;;;;13.70;8.30;;;;;;;0.42;100.00;98128.23;109343;1263;22644;-77
2023/01/25 09:45:35;;;;;;;13.80;8.60;;;;;;;0.48;100.00;98123.33;109261;1271;22535;-78
2023/01/25 09:48:22;;;;;;;12.20;8.00;;;;;;;0.55;100.00;98113.98;109459;1270;25287;-78
2023/01/25 09:51:08;;;;;;;11.40;7.50;;;;;;;0.66;100.00;98109.71;109309;1267;22516;-78
2023/01/25 09:53:41;;;;;;;11.20;7.00;;;;;;;0.76;100.00;98102.32;109349;1268;22608;-78
2023/01/25 09:56:19;;;;;;;10.60;7.10;;;;;;;0.82;100.00;98093.46;109065;1270;22754;-77
2023/01/25 09:58:56;;;;;;;10.90;6.90;;;;;;;0.78;100.00;98093.35;109003;1270;22679;-77
2023/01/25 10:01:43;;;;;;;5.20;3.40;;;;;;;0.61;100.00;98085.96;108656;1267;22521;-77
2023/01/25 10:04:17;;;;;;;4.40;3.40;;;;;;;0.41;100.00;98079.75;108744;1264;22752;-77
2023/01/25 10:06:53;;;;;;;6.20;4.30;;;;;;;0.29;100.00;98076.61;108675;1263;25265;-77
2023/01/25 10:09:33;;;;;;;9.70;6.30;;;;;;;0.27;100.00;98073.03;109383;1266;22524;-77
2023/01/25 10:12:13;;;;;;;4.80;3.50;;;;;;;0.26;100.00;98075.19;109369;1271;22538;-77
2023/01/25 10:14:45;;;;;;;4.10;3.00;;;;;;;0.19;99.54;98068.25;109424;1271;28617;-76
2023/01/25 10:17:27;;;;;;;4.20;3.10;;;;;;;0.15;99.03;98067.45;108896;1269;25240;-77
2023/01/25 10:20:09;;;;;;;4.30;3.20;;;;;;;0.20;99.88;98057.59;108899;1257;24228;-77
2023/01/25 10:22:45;;;;;;;6.10;3.80;;;;;;;0.19;99.67;98049.96;109376;1269;24212;-78
2023/01/25 10:25:29;;;;;;;13.40;9.10;;;;;;;0.23;100.00;98045.85;109421;1270;22561;-78
2023/01/25 10:28:13;;;;;;;11.60;7.60;;;;;;;0.28;100.00;98037.81;109398;1271;22576;-78
2023/01/25 10:30:53;;;;;;;12.10;8.00;;;;;;;0.39;100.00;98034.97;109359;1270;24539;-78
2023/01/25 10:33:26;;;;;;;12.90;8.50;;;;;;;0.45;100.00;98030.49;109399;1270;22529;-78
2023/01/25 10:35:58;;;;;;;15.00;10.00;;;;;;;0.51;100.00;98032.17;109343;1270;22560;-78
2023/01/25 10:38:34;;;;;;;15.60;10.10;;;;;;;0.60;100.00;98028.89;109431;1270;22524;-79
2023/01/25 10:41:09;;;;;;;17.10;11.50;;;;;;;0.64;100.00;98023.85;108963;1270;22524;-80
2023/01/25 10:43:40;;;;;;;18.00;13.00;;;;;;;0.68;100.00;98021.80;109391;1270;22512;-79
2023/01/25 10:46:21;;;;;;;17.50;12.10;;;;;;;0.73;100.00;98021.45;109416;1270;22521;-79
2023/01/25 10:48:56;;;;;;;18.70;13.00;;;;;;;0.76;100.00;98016.83;109347;1267;22543;-78
2023/01/25 10:51:35;;;;;;;16.30;11.20;;;;;;;0.79;100.00;98014.41;109339;1270;22551;-78
2023/01/25 10:54:13;;;;;;;15.50;10.40;;;;;;;0.81;100.00;98007.20;109280;1270;27920;-78
2023/01/25 10:56:46;;;;;;;14.30;9.70;;;;;;;0.84;100.00;98005.27;109369;1270;22683;-78
2023/01/25 10:59:21;;;;;;;12.20;8.60;;;;;;;0.86;100.00;98003.23;109299;1264;22542;-77
2023/01/25 11:01:53;;;;;;;10.30;7.40;;;;;;;0.79;100.00;98002.40;109073;1267;24382;-77
2023/01/25 11:04:32;;;;;;;11.40;7.70;;;;;;;0.71;100.00;97998.49;108980;1271;22551;-77
2023/01/25 11:07:05;;;;;;;10.90;7.80;;;;;;;0.53;99.66;98000.77;108914;1270;22518;-77
2023/01/25 11:09:39;;;;;;;11.70;8.80;;;;;;;0.46;99.86;98001.49;109015;1271;25119;-77
2023/01/25 11:12:20;;;;;;;9.60;6.60;;;;;;;0.41;99.93;97998.40;108890;1271;22546;-76
2023/01/25 11:14:52;;;;;;;8.10;5.70;;;;;;;0.35;99.74;97997.71;108997;1270;22543;-77
2023/01/25 11:17:30;;;;;;;9.50;5.60;;;;;;;0.36;99.89;97991.48;108979;1270;24256;-77
2023/01/25 11:20:19;;;;;;;8.10;4.90;;;;;;;0.39;99.90;97987.21;109390;1266;25271;-77
2023/01/25 11:22:56;;;;;;;7.00;4.70;;;;;;;0.31;98.05;97988.95;108986;1270;22541;-76
2023/01/25 11:25:30;;;;;;;7.00;4.20;;;;;;;0.19;97.45;97984.13;109061;1270;22582;-77
2023/01/25 11:28:20;;;;;;;7.30;4.20;;;;;;;0.16;97.42;97980.08;109099;1269;22518;-78
2023/01/25 11:30:52;;;;;;;6.70;4.40;;;;;;;0.11;96.49;97975.66;109424;1270;22587;-77
2023/01/25 11:33:26;;;;;;;6.90;4.80;;;;;;;0.10;96.62;97968.70;109260;1271;22568;-78
2023/01/25 11:36:16;;;;;;;5.60;4.10;;;;;;;0.10;96.22;97959.59;109300;1267;22531;-80
2023/01/25 11:38:56;;;;;;;8.50;4.90;;;;;;;0.12;96.83;97957.01;109344;1267;22528;-79
2023/01/25 11:41:35;;;;;;;6.30;4.20;;;;;;;0.13;96.56;97954.41;109337;1269;22552;-78